Time;durP1;ratioP1;P1;durP2;ratioP2;P2;SDS_P1;SDS_P2;PMS_P1;PMS_P2;Temp;Humidity;BMP_temperature;BMP_pressure;BME280_temperature;BME280_humidity;BME280_pressure;Samples;Min_cycle;Max_cycle;Signal;HPM_P1;HPM_P2
2022/11/01 00:01:56;;;;;;;29.77;17.27;;;;;;;15.49;100.00;100478.59;5058438;28;20204;-63
2022/11/01 00:04:24;;;;;;;26.97;16.70;;;;;;;15.51;100.00;100476.56;5055125;28;20224;-63
2022/11/01 00:06:52;;;;;;;28.83;17.03;;;;;;;15.47;100.00;100474.44;5063932;28;20203;-63
2022/11/01 00:09:21;;;;;;;29.10;15.80;;;;;;;15.49;100.00;100488.44;5065515;28;20208;-63
2022/11/01 00:11:49;;;;;;;32.70;17.83;;;;;;;15.57;99.32;100480.41;5055679;28;20625;-63
2022/11/01 00:14:19;;;;;;;27.40;16.63;;;;;;;15.54;99.38;100464.72;5059643;28;20223;-62
2022/11/01 00:16:47;;;;;;;33.00;16.23;;;;;;;15.48;99.97;100465.44;5057634;28;20208;-63
2022/11/01 00:19:15;;;;;;;30.63;16.47;;;;;;;15.42;100.00;100467.78;5054026;28;20226;-62
2022/11/01 00:21:43;;;;;;;26.87;16.07;;;;;;;15.42;100.00;100473.13;5059672;28;20203;-63
2022/11/01 00:24:11;;;;;;;29.43;16.10;;;;;;;15.42;100.00;100469.63;5053930;28;20238;-62
2022/11/01 00:26:40;;;;;;;26.87;16.77;;;;;;;15.42;100.00;100466.97;5051095;28;20239;-63
2022/11/01 00:29:08;;;;;;;27.13;16.57;;;;;;;15.44;100.00;100465.78;5054746;28;20204;-63
2022/11/01 00:31:36;;;;;;;27.97;17.27;;;;;;;15.43;100.00;100469.47;5050277;28;20204;-63
2022/11/01 00:34:05;;;;;;;27.03;16.17;;;;;;;15.37;100.00;100459.50;5051463;28;20602;-62
2022/11/01 00:36:33;;;;;;;32.40;16.07;;;;;;;15.34;100.00;100457.16;5058448;28;20213;-63
2022/11/01 00:39:01;;;;;;;27.37;16.40;;;;;;;15.33;100.00;100442.16;5056104;28;20211;-63
2022/11/01 00:41:28;;;;;;;28.47;16.20;;;;;;;15.33;100.00;100452.00;5054246;28;20211;-63
2022/11/01 00:43:57;;;;;;;26.13;15.27;;;;;;;15.36;100.00;100462.34;5055001;28;20232;-63
2022/11/01 00:46:25;;;;;;;30.13;16.33;;;;;;;15.37;100.00;100456.81;5055433;28;20211;-63
2022/11/01 00:48:53;;;;;;;29.80;16.10;;;;;;;15.34;100.00;100459.84;5057397;28;20893;-63
2022/11/01 00:51:21;;;;;;;29.40;15.47;;;;;;;15.33;100.00;100438.66;5052474;28;20344;-64
2022/11/01 00:53:49;;;;;;;26.50;16.67;;;;;;;15.37;100.00;100438.13;5056845;28;20570;-64
2022/11/01 00:56:17;;;;;;;25.10;15.57;;;;;;;15.38;100.00;100442.47;5060621;28;20249;-62
2022/11/01 00:58:44;;;;;;;24.57;15.47;;;;;;;15.39;100.00;100441.41;5051157;28;20226;-63
2022/11/01 01:01:14;;;;;;;26.67;16.87;;;;;;;15.41;100.00;100443.91;5054493;28;20216;-62
2022/11/01 01:03:42;;;;;;;26.57;15.53;;;;;;;15.41;100.00;100438.56;5051213;28;20504;-62
2022/11/01 01:06:09;;;;;;;25.47;16.07;;;;;;;15.46;100.00;100438.06;5051221;28;20280;-62
2022/11/01 01:08:37;;;;;;;27.50;15.23;;;;;;;15.49;99.87;100429.66;5058711;28;20203;-62
2022/11/01 01:11:05;;;;;;;27.27;15.70;;;;;;;15.47;99.91;100437.03;5058285;28;20216;-62
2022/11/01 01:13:33;;;;;;;25.53;14.67;;;;;;;15.49;100.00;100426.97;5054680;28;20224;-62
2022/11/01 01:16:00;;;;;;;21.57;14.30;;;;;;;15.57;99.52;100427.75;5050216;28;20207;-62
2022/11/01 01:18:29;;;;;;;26.97;15.13;;;;;;;15.63;98.75;100418.22;5051183;28;20712;-62
2022/11/01 01:21:00;;;;;;;22.47;14.47;;;;;;;15.63;98.28;100435.09;5053897;28;20779;-62
2022/11/01 01:23:28;;;;;;;20.40;12.97;;;;;;;15.60;98.44;100426.59;5054901;28;20453;-62
2022/11/01 01:25:55;;;;;;;20.40;13.23;;;;;;;15.60;98.46;100426.59;5050999;28;20244;-63
2022/11/01 01:28:23;;;;;;;22.60;13.57;;;;;;;15.61;98.58;100426.41;5054507;28;20266;-62
2022/11/01 01:30:51;;;;;;;23.07;14.33;;;;;;;15.62;98.36;100428.06;5052704;28;20269;-62
2022/11/01 01:33:18;;;;;;;21.47;13.47;;;;;;;15.65;98.10;100426.88;5057053;28;20755;-62
2022/11/01 01:35:47;;;;;;;20.93;13.57;;;;;;;15.64;97.68;100431.41;5055109;28;20653;-62
2022/11/01 01:38:15;;;;;;;22.43;12.57;;;;;;;15.63;97.67;100432.41;5050475;28;20216;-62
2022/11/01 01:40:42;;;;;;;21.20;11.00;;;;;;;15.62;97.93;100435.25;5052241;28;20211;-62
2022/11/01 01:43:11;;;;;;;22.67;12.07;;;;;;;15.64;97.36;100441.25;5051328;28;20207;-62
2022/11/01 01:45:41;;;;;;;22.73;12.70;;;;;;;15.63;97.63;100442.25;5053832;28;20204;-62
2022/11/01 01:48:19;;;;;;;23.00;11.67;;;;;;;15.62;97.01;100436.09;5055198;28;20231;-62
2022/11/01 01:50:56;;;;;;;26.70;12.17;;;;;;;15.58;97.32;100439.28;5053615;28;20207;-63
2022/11/01 01:53:27;;;;;;;23.00;11.67;;;;;;;15.55;97.89;100439.69;5052155;28;20242;-62
2022/11/01 01:55:59;;;;;;;23.23;11.90;;;;;;;15.57;97.73;100437.66;5052961;28;20586;-62
2022/11/01 01:58:30;;;;;;;17.50;11.70;;;;;;;15.62;96.95;100435.25;5052588;28;20225;-62
2022/11/01 02:00:58;;;;;;;24.07;11.97;;;;;;;15.59;96.92;100433.78;5050505;28;20227;-62
2022/11/01 02:03:29;;;;;;;20.57;11.13;;;;;;;15.58;97.42;100428.59;5052407;28;20212;-63
2022/11/01 02:06:02;;;;;;;19.50;11.50;;;;;;;15.59;97.06;100420.41;5052276;28;20200;-62
2022/11/01 02:08:31;;;;;;;26.20;12.07;;;;;;;15.58;97.16;100423.25;5055495;28;20203;-62
2022/11/01 02:11:01;;;;;;;27.97;12.20;;;;;;;15.58;97.28;100423.25;5054382;28;20257;-63
2022/11/01 02:13:30;;;;;;;25.40;12.50;;;;;;;15.57;97.04;100426.97;5050157;28;20232;-62
2022/11/01 02:16:17;;;;;;;21.83;12.60;;;;;;;15.58;96.82;100429.44;5045801;28;20250;-62
2022/11/01 02:18:48;;;;;;;22.40;12.60;;;;;;;15.54;97.17;100421.97;5055572;28;20279;-62
2022/11/01 02:21:45;;;;;;;19.57;11.93;;;;;;;15.53;96.95;100425.63;5050836;28;20200;-62
2022/11/01 02:24:42;;;;;;;24.77;11.23;;;;;;;15.49;97.33;100418.97;5051801;28;20223;-62
2022/11/01 02:27:19;;;;;;;19.47;11.53;;;;;;;15.52;96.55;100415.94;5049825;28;20224;-62
2022/11/01 02:30:11;;;;;;;24.87;11.93;;;;;;;15.52;96.34;100410.59;5047255;28;20206;-62
2022/11/01 02:32:56;;;;;;;21.50;12.50;;;;;;;15.47;97.06;100410.31;5050485;28;20257;-62
2022/11/01 02:35:30;;;;;;;19.00;11.90;;;;;;;15.43;96.70;100408.00;5054520;28;20667;-62
2022/11/01 02:38:06;;;;;;;25.80;12.13;;;;;;;15.41;97.11;100417.19;5053142;28;20207;-62
2022/11/01 02:40:43;;;;;;;19.60;11.80;;;;;;;15.43;96.75;100415.19;5049902;28;20256;-62
2022/11/01 02:43:16;;;;;;;20.33;11.50;;;;;;;15.43;96.78;100421.34;5049314;28;20265;-62
2022/11/01 02:45:48;;;;;;;26.63;11.30;;;;;;;15.46;96.75;100441.56;5048207;28;20220;-62
2022/11/01 02:48:20;;;;;;;21.90;11.93;;;;;;;15.43;96.81;100460.59;5049439;28;20316;-62
2022/11/01 02:50:52;;;;;;;20.67;11.47;;;;;;;15.49;96.48;100485.78;5047049;28;20273;-62
2022/11/01 02:53:20;;;;;;;23.60;11.93;;;;;;;15.48;96.84;100490.28;5049071;28;22634;-62
2022/11/01 02:55:50;;;;;;;19.53;11.60;;;;;;;15.50;97.41;100485.59;5051716;28;20208;-62
2022/11/01 02:58:22;;;;;;;18.30;11.87;;;;;;;15.46;99.59;100480.81;5050243;28;20212;-62
2022/11/01 03:00:50;;;;;;;23.80;13.10;;;;;;;15.44;100.00;100470.28;5051919;28;20282;-62
2022/11/01 03:03:23;;;;;;;22.90;12.63;;;;;;;15.39;100.00;100473.47;5053857;28;20204;-63
2022/11/01 03:06:04;;;;;;;28.87;13.77;;;;;;;15.44;100.00;100480.97;5049982;28;20224;-63
2022/11/01 03:08:36;;;;;;;32.60;13.30;;;;;;;15.41;100.00;100476.81;5050647;28;20192;-62
2022/11/01 03:11:08;;;;;;;24.03;14.77;;;;;;;15.43;100.00;100484.66;5048006;28;20250;-64
2022/11/01 03:13:52;;;;;;;27.83;13.77;;;;;;;15.35;100.00;100472.19;5044055;28;20236;-63
2022/11/01 03:16:28;;;;;;;27.03;14.63;;;;;;;15.34;100.00;100470.53;5050745;28;20295;-62
2022/11/01 03:19:06;;;;;;;24.33;12.77;;;;;;;15.29;100.00;100475.59;5051198;28;20207;-62
2022/11/01 03:21:39;;;;;;;27.63;14.03;;;;;;;15.33;100.00;100474.22;5054587;28;20269;-63
2022/11/01 03:24:14;;;;;;;27.00;13.90;;;;;;;15.32;100.00;100474.38;5050416;28;20312;-62
2022/11/01 03:26:43;;;;;;;26.13;13.70;;;;;;;15.33;100.00;100471.53;5053049;28;20206;-62
2022/11/01 03:29:12;;;;;;;24.03;13.70;;;;;;;15.36;100.00;100471.19;5051228;28;20211;-62
2022/11/01 03:31:42;;;;;;;28.60;14.33;;;;;;;15.39;100.00;100481.50;5050204;28;20236;-63
2022/11/01 03:34:15;;;;;;;26.47;13.77;;;;;;;15.39;100.00;100486.84;5048616;28;20211;-62
2022/11/01 03:36:47;;;;;;;26.67;14.37;;;;;;;15.43;100.00;100490.84;5053525;28;20212;-63
2022/11/01 03:39:20;;;;;;;25.83;14.13;;;;;;;15.46;100.00;100489.66;5054736;28;20258;-62
2022/11/01 03:41:54;;;;;;;24.77;14.50;;;;;;;15.49;100.00;100494.63;5055188;28;20245;-63
2022/11/01 03:44:22;;;;;;;22.97;14.37;;;;;;;15.50;100.00;100492.78;5054887;28;20236;-62
2022/11/01 03:46:50;;;;;;;26.00;13.80;;;;;;;15.52;100.00;100490.78;5055144;28;20319;-63
2022/11/01 03:49:20;;;;;;;21.67;13.53;;;;;;;15.54;100.00;100500.31;5053185;28;20886;-63
2022/11/01 03:51:48;;;;;;;30.50;13.93;;;;;;;15.58;100.00;100500.75;5052907;28;21581;-63
2022/11/01 03:54:15;;;;;;;24.70;13.43;;;;;;;15.61;100.00;100500.41;5053847;28;20245;-64
2022/11/01 03:56:43;;;;;;;23.93;14.10;;;;;;;15.63;100.00;100496.56;5055628;28;20672;-63
2022/11/01 03:59:11;;;;;;;22.90;12.93;;;;;;;15.62;100.00;100491.38;5060621;28;20203;-63
2022/11/01 04:01:39;;;;;;;22.07;12.57;;;;;;;15.64;100.00;100500.06;5048839;28;20212;-63
2022/11/01 04:04:06;;;;;;;24.03;13.60;;;;;;;15.65;100.00;100509.75;5055512;28;20222;-62
2022/11/01 04:06:35;;;;;;;24.43;13.23;;;;;;;15.64;100.00;100503.56;5048049;28;20239;-62
2022/11/01 04:09:04;;;;;;;33.33;13.97;;;;;;;15.67;100.00;100513.06;5055786;28;20207;-64
2022/11/01 04:11:31;;;;;;;21.17;12.93;;;;;;;15.74;100.00;100508.66;5053956;28;20265;-63
2022/11/01 04:22:12;;;;;;;20.80;12.70;;;;;;;15.68;100.00;100526.25;5055809;28;20629;-64
2022/11/01 04:24:40;;;;;;;27.67;13.50;;;;;;;15.71;100.00;100541.09;5048951;28;20414;-63
2022/11/01 04:27:08;;;;;;;26.03;13.47;;;;;;;15.72;100.00;100540.09;5048621;28;22028;-62
2022/11/01 04:29:35;;;;;;;24.83;14.17;;;;;;;15.71;100.00;100535.75;5047257;28;20840;-63
2022/11/01 04:32:03;;;;;;;26.57;14.30;;;;;;;15.69;100.00;100532.41;5052683;28;20705;-63
2022/11/01 04:34:43;;;;;;;24.37;13.67;;;;;;;15.79;100.00;100539.19;5054705;28;20281;-62
2022/11/01 04:37:12;;;;;;;26.47;13.73;;;;;;;15.79;100.00;100538.34;5049555;28;20297;-61
2022/11/01 04:39:40;;;;;;;25.00;14.77;;;;;;;15.78;100.00;100532.19;5054858;28;20199;-62
2022/11/01 04:42:08;;;;;;;26.67;13.63;;;;;;;15.77;100.00;100519.81;5053090;28;20293;-62
2022/11/01 04:44:35;;;;;;;26.53;14.47;;;;;;;15.84;100.00;100505.72;5054926;28;20208;-62
2022/11/01 04:47:03;;;;;;;25.60;14.13;;;;;;;15.78;100.00;100510.78;5052304;28;20214;-62
2022/11/01 04:49:31;;;;;;;26.53;15.73;;;;;;;15.74;100.00;100514.81;5047114;28;20216;-63
2022/11/01 04:51:58;;;;;;;28.50;15.70;;;;;;;15.75;100.00;100521.00;5050583;28;20238;-62
2022/11/01 04:54:31;;;;;;;34.37;16.67;;;;;;;15.70;100.00;100524.22;5053468;28;22416;-63
2022/11/01 04:56:59;;;;;;;34.77;16.50;;;;;;;15.69;100.00;100509.19;5055118;28;20214;-63
2022/11/01 04:59:27;;;;;;;26.83;16.30;;;;;;;15.72;100.00;100508.00;5047749;28;20270;-63
2022/11/01 05:01:54;;;;;;;23.17;14.63;;;;;;;15.68;100.00;100523.56;5049828;28;20208;-63
2022/11/01 05:04:22;;;;;;;27.80;16.33;;;;;;;15.70;100.00;100526.06;5048770;28;20212;-63
2022/11/01 05:06:50;;;;;;;29.20;14.67;;;;;;;15.72;100.00;100526.72;5051058;28;20268;-62
2022/11/01 05:09:18;;;;;;;28.60;15.83;;;;;;;15.74;100.00;100538.06;5052827;28;20290;-62
2022/11/01 05:11:47;;;;;;;31.17;16.80;;;;;;;15.74;100.00;100556.78;5051770;28;20302;-63
2022/11/01 05:14:14;;;;;;;27.53;15.90;;;;;;;15.74;100.00;100556.78;5048675;28;20278;-63
2022/11/01 05:16:42;;;;;;;34.60;16.50;;;;;;;15.73;100.00;100569.31;5048205;28;20204;-63
2022/11/01 05:19:09;;;;;;;32.90;15.90;;;;;;;15.78;100.00;100563.44;5052182;28;20208;-64
2022/11/01 05:21:37;;;;;;;26.87;14.97;;;;;;;15.79;100.00;100570.44;5054586;28;20207;-63
2022/11/01 05:24:05;;;;;;;30.93;14.97;;;;;;;15.76;100.00;100560.94;5051518;28;20657;-64
2022/11/01 05:26:32;;;;;;;25.13;13.73;;;;;;;15.73;100.00;100580.03;5050348;28;20996;-63
2022/11/01 05:29:01;;;;;;;24.30;14.27;;;;;;;15.71;100.00;100583.88;5050420;28;20207;-63
2022/11/01 05:31:40;;;;;;;24.93;14.33;;;;;;;15.74;100.00;100570.97;5051143;28;20212;-62
2022/11/01 05:34:07;;;;;;;27.40;14.73;;;;;;;15.76;100.00;100576.13;5050806;28;20215;-65
2022/11/01 05:36:35;;;;;;;25.43;13.43;;;;;;;15.81;100.00;100587.16;5051193;28;20211;-63
2022/11/01 05:39:03;;;;;;;20.77;12.73;;;;;;;15.81;100.00;100589.81;5050466;28;20204;-62
2022/11/01 05:41:30;;;;;;;26.20;13.50;;;;;;;15.80;100.00;100582.81;5051126;28;20327;-62
2022/11/01 05:43:58;;;;;;;19.50;12.43;;;;;;;15.80;100.00;100601.50;5051743;28;20227;-63
2022/11/01 05:46:27;;;;;;;30.40;13.93;;;;;;;15.81;100.00;100600.50;5052405;28;20289;-62
2022/11/01 05:48:55;;;;;;;26.00;15.17;;;;;;;15.84;100.00;100604.66;5052148;28;20702;-62
2022/11/01 05:51:23;;;;;;;25.87;14.97;;;;;;;15.85;100.00;100612.50;5056488;28;20218;-63
2022/11/01 05:53:51;;;;;;;22.23;14.90;;;;;;;15.82;100.00;100615.53;5052216;28;20257;-62
2022/11/01 05:56:19;;;;;;;24.33;13.93;;;;;;;15.87;100.00;100615.84;5048539;28;20257;-63
2022/11/01 05:58:47;;;;;;;22.43;14.70;;;;;;;15.80;100.00;100620.22;5051597;28;20208;-62
2022/11/01 06:01:16;;;;;;;22.13;14.43;;;;;;;15.75;100.00;100617.25;5048676;28;20229;-62
2022/11/01 06:03:49;;;;;;;27.10;14.63;;;;;;;15.77;100.00;100621.41;5050439;28;20203;-62
2022/11/01 06:06:17;;;;;;;21.03;14.40;;;;;;;15.75;100.00;100623.44;5048304;28;20212;-62
2022/11/01 06:08:44;;;;;;;29.20;15.90;;;;;;;15.79;100.00;100626.59;5050129;28;20207;-62
2022/11/01 06:11:12;;;;;;;22.33;14.67;;;;;;;15.82;100.00;100622.72;5053557;28;20261;-62
2022/11/01 06:13:40;;;;;;;25.67;14.40;;;;;;;15.79;100.00;100626.59;5052080;28;22822;-62
2022/11/01 06:16:08;;;;;;;25.73;14.83;;;;;;;15.77;100.00;100625.94;5051292;28;21823;-62
2022/11/01 06:18:35;;;;;;;24.77;14.80;;;;;;;15.80;100.00;100644.28;5046609;28;20204;-62
2022/11/01 06:21:05;;;;;;;24.47;13.67;;;;;;;15.77;100.00;100647.31;5052403;28;20212;-62
2022/11/01 06:23:32;;;;;;;28.37;14.63;;;;;;;15.80;100.00;100652.31;5048290;28;20954;-63
2022/11/01 06:26:01;;;;;;;20.43;13.43;;;;;;;15.77;100.00;100652.66;5052107;28;21219;-63
2022/11/01 06:28:29;;;;;;;22.13;13.03;;;;;;;15.78;100.00;100644.47;5050079;28;21069;-63
2022/11/01 06:31:00;;;;;;;23.67;13.60;;;;;;;15.79;100.00;100650.66;5048374;28;20258;-63
2022/11/01 06:33:28;;;;;;;20.37;12.57;;;;;;;15.77;100.00;100658.84;5047195;28;20215;-62
2022/11/01 06:35:55;;;;;;;25.07;12.70;;;;;;;15.79;100.00;100661.34;5050481;28;20899;-63
2022/11/01 06:38:25;;;;;;;19.60;12.27;;;;;;;15.78;100.00;100667.69;5045715;28;20208;-63
2022/11/01 06:40:52;;;;;;;19.83;12.97;;;;;;;15.75;100.00;100668.03;5049303;28;20307;-63
2022/11/01 06:43:20;;;;;;;22.77;12.67;;;;;;;15.79;100.00;100667.53;5050666;28;20208;-63
2022/11/01 06:45:48;;;;;;;18.93;12.40;;;;;;;15.81;100.00;100675.38;5051269;28;20216;-62
2022/11/01 06:48:15;;;;;;;23.77;12.63;;;;;;;15.78;100.00;100675.72;5058992;28;20256;-63
2022/11/01 06:50:43;;;;;;;22.07;12.37;;;;;;;15.86;100.00;100677.50;5053296;28;20671;-63
2022/11/01 06:53:10;;;;;;;20.77;12.60;;;;;;;15.83;100.00;100673.38;5061446;28;20269;-63
2022/11/01 06:55:39;;;;;;;22.03;12.77;;;;;;;15.86;100.00;100667.66;5059624;28;20683;-62
2022/11/01 06:58:07;;;;;;;20.30;11.37;;;;;;;15.86;100.00;100667.66;5063257;28;20233;-62
2022/11/01 07:00:35;;;;;;;19.77;11.43;;;;;;;15.86;100.00;100674.84;5051400;28;20254;-63
2022/11/01 07:03:04;;;;;;;21.60;12.53;;;;;;;15.83;100.00;100681.38;5057043;28;20223;-63
2022/11/01 07:05:33;;;;;;;21.83;11.93;;;;;;;15.86;100.00;100689.03;5054427;28;20236;-63
2022/11/01 07:08:06;;;;;;;18.70;11.37;;;;;;;15.91;100.00;100694.69;5060036;28;20238;-63
2022/11/01 07:10:35;;;;;;;20.93;12.43;;;;;;;15.90;100.00;100695.72;5058226;28;20207;-63
2022/11/01 07:13:06;;;;;;;18.87;11.47;;;;;;;15.86;100.00;100707.75;5060795;28;20211;-63
2022/11/01 07:15:34;;;;;;;16.73;10.77;;;;;;;15.89;100.00;100710.09;5056901;28;20215;-63
2022/11/01 07:18:04;;;;;;;22.17;11.63;;;;;;;15.83;100.00;100705.47;5054489;28;20208;-62
2022/11/01 07:20:39;;;;;;;21.53;11.10;;;;;;;15.85;100.00;100714.09;5062410;28;20220;-63
2022/11/01 07:23:11;;;;;;;22.73;10.93;;;;;;;15.90;100.00;100717.09;5057187;28;20203;-63
2022/11/01 07:25:38;;;;;;;17.47;10.47;;;;;;;15.93;100.00;100727.44;5057962;28;20240;-63
2022/11/01 07:28:07;;;;;;;15.50;9.77;;;;;;;15.96;100.00;100716.38;5051982;28;20236;-63
2022/11/01 07:30:38;;;;;;;17.03;10.20;;;;;;;16.00;100.00;100717.72;5052423;28;20258;-63
2022/11/01 07:33:05;;;;;;;19.50;8.97;;;;;;;16.01;100.00;100730.06;5050661;28;20284;-63
2022/11/01 07:35:34;;;;;;;16.77;9.00;;;;;;;16.08;100.00;100725.69;5055631;28;20334;-61
2022/11/01 07:38:02;;;;;;;13.10;8.60;;;;;;;16.09;100.00;100724.69;5057634;28;20209;-62
2022/11/01 07:40:38;;;;;;;16.73;7.97;;;;;;;16.12;100.00;100736.84;5056672;28;20203;-62
2022/11/01 07:43:07;;;;;;;14.17;8.67;;;;;;;16.15;100.00;100737.34;5056405;28;20708;-62
2022/11/01 07:45:35;;;;;;;12.67;7.57;;;;;;;16.22;100.00;100736.59;5055342;28;20203;-61
2022/11/01 07:48:05;;;;;;;13.03;8.57;;;;;;;16.24;100.00;100734.59;5061481;28;20238;-62
2022/11/01 07:50:34;;;;;;;19.47;8.03;;;;;;;16.29;100.00;100729.53;5062573;28;20753;-62
2022/11/01 07:53:02;;;;;;;14.37;7.20;;;;;;;16.28;100.00;100734.03;5057811;28;20208;-63
2022/11/01 07:55:29;;;;;;;18.23;7.70;;;;;;;16.27;100.00;100739.59;5060073;28;20212;-62
2022/11/01 07:57:57;;;;;;;16.73;7.87;;;;;;;16.30;100.00;100750.75;5058373;28;20237;-63
2022/11/01 08:00:26;;;;;;;16.70;8.30;;;;;;;16.33;100.00;100752.25;5056063;28;20668;-61
2022/11/01 08:03:00;;;;;;;15.33;8.27;;;;;;;16.39;100.00;100754.22;5052526;28;20219;-62
2022/11/01 08:05:28;;;;;;;14.10;7.93;;;;;;;16.40;100.00;100762.06;5062958;28;20212;-61
2022/11/01 08:07:56;;;;;;;12.73;8.53;;;;;;;16.40;100.00;100755.88;5059012;28;20704;-61
2022/11/01 08:10:24;;;;;;;15.57;8.30;;;;;;;16.42;100.00;100760.06;5067150;28;20199;-62
2022/11/01 08:12:52;;;;;;;14.70;8.97;;;;;;;16.44;100.00;100759.88;5054610;28;20290;-61
2022/11/01 08:15:19;;;;;;;14.83;7.77;;;;;;;16.54;100.00;100763.13;5057141;28;20211;-62
2022/11/01 08:17:48;;;;;;;13.03;7.73;;;;;;;16.54;100.00;100763.94;5057757;28;20265;-63
2022/11/01 08:20:16;;;;;;;13.03;7.83;;;;;;;16.60;100.00;100756.22;5053492;28;20269;-62
2022/11/01 08:22:44;;;;;;;14.33;7.40;;;;;;;16.63;100.00;100767.44;5052206;28;20274;-61
2022/11/01 08:25:12;;;;;;;14.50;7.67;;;;;;;16.68;100.00;100773.09;5054662;28;20612;-62
2022/11/01 08:27:40;;;;;;;11.53;7.13;;;;;;;16.66;100.00;100772.44;5053673;28;20224;-61
2022/11/01 08:30:09;;;;;;;15.17;7.33;;;;;;;16.71;100.00;100775.38;5057078;28;20215;-61
2022/11/01 08:32:36;;;;;;;12.53;6.77;;;;;;;16.63;100.00;100783.50;5057129;28;20649;-63
2022/11/01 08:35:07;;;;;;;16.17;7.73;;;;;;;16.61;100.00;100790.91;5059480;28;20208;-61
2022/11/01 08:37:35;;;;;;;14.37;7.80;;;;;;;16.58;100.00;100795.72;5054042;28;20204;-62
2022/11/01 08:40:03;;;;;;;18.13;7.70;;;;;;;16.56;100.00;100790.53;5054515;28;20208;-62
2022/11/01 08:42:31;;;;;;;13.00;6.33;;;;;;;16.63;100.00;100794.19;5053206;28;20212;-61
2022/11/01 08:44:58;;;;;;;16.00;7.13;;;;;;;16.62;100.00;100794.41;5059937;28;20270;-62
2022/11/01 08:47:26;;;;;;;11.30;6.20;;;;;;;16.65;100.00;100796.69;5059718;28;20233;-61
2022/11/01 08:49:54;;;;;;;11.37;7.17;;;;;;;16.62;100.00;100807.78;5057454;28;20215;-60
2022/11/01 08:52:24;;;;;;;11.10;6.87;;;;;;;16.65;100.00;100808.25;5058280;28;20657;-61
2022/11/01 08:54:51;;;;;;;10.37;6.77;;;;;;;16.64;100.00;100803.91;5057642;28;20215;-61
2022/11/01 08:57:19;;;;;;;12.10;6.77;;;;;;;16.67;100.00;100808.91;5058248;28;20257;-61
2022/11/01 08:59:47;;;;;;;15.30;6.70;;;;;;;16.68;100.00;100815.94;5061099;28;20234;-61
2022/11/01 09:02:15;;;;;;;13.83;6.30;;;;;;;16.69;100.00;100819.44;5060475;28;20215;-61
2022/11/01 09:04:42;;;;;;;10.00;5.90;;;;;;;16.68;100.00;100836.53;5053524;28;20204;-62
2022/11/01 09:07:10;;;;;;;11.67;6.13;;;;;;;16.71;100.00;100841.53;5057944;28;20223;-64
2022/11/01 09:09:39;;;;;;;11.70;3.90;;;;;;;16.69;100.00;100863.13;5053001;28;20205;-65
2022/11/01 09:12:07;;;;;;;5.13;2.10;;;;;;;16.61;97.03;100855.16;5056190;28;20265;-64
2022/11/01 09:14:41;;;;;;;4.90;1.57;;;;;;;16.57;90.13;100853.78;5060595;28;20231;-64
2022/11/01 09:17:08;;;;;;;3.47;1.13;;;;;;;16.57;87.25;100859.16;5058430;28;20240;-62
2022/11/01 09:19:36;;;;;;;13.30;1.57;;;;;;;16.51;84.14;100865.22;5055350;28;20203;-62
2022/11/01 09:22:04;;;;;;;3.50;0.90;;;;;;;16.47;81.81;100859.38;5056901;28;20215;-63
2022/11/01 09:24:32;;;;;;;2.93;1.20;;;;;;;16.44;79.74;100859.75;5057528;28;20616;-62
2022/11/01 09:27:01;;;;;;;3.43;1.10;;;;;;;16.37;78.62;100864.13;5056694;28;20208;-62
2022/11/01 09:29:28;;;;;;;3.83;1.20;;;;;;;16.35;77.30;100878.69;5049763;28;20789;-62
2022/11/01 09:31:56;;;;;;;4.63;1.30;;;;;;;16.30;76.38;100876.53;5049560;28;20828;-62
2022/11/01 09:34:24;;;;;;;6.17;1.93;;;;;;;16.31;75.60;100880.03;5056038;28;20226;-62
2022/11/01 09:36:52;;;;;;;3.23;1.10;;;;;;;16.30;76.24;100878.38;5053394;28;20665;-62
2022/11/01 09:39:20;;;;;;;6.47;1.30;;;;;;;16.36;76.10;100878.50;5051566;28;20211;-62
2022/11/01 09:41:51;;;;;;;3.67;1.27;;;;;;;16.42;74.50;100876.97;5047065;28;20216;-63
2022/11/01 09:44:26;;;;;;;11.47;1.43;;;;;;;16.46;73.98;100875.59;5048952;28;20737;-61
2022/11/01 09:46:58;;;;;;;8.20;0.90;;;;;;;16.51;74.15;100876.75;5052717;28;20358;-61
2022/11/01 09:49:34;;;;;;;4.03;1.00;;;;;;;16.60;72.42;100884.75;5049369;28;20267;-61
2022/11/01 09:52:02;;;;;;;5.13;1.80;;;;;;;16.67;73.45;100893.75;5050535;28;20623;-62
2022/11/01 09:54:29;;;;;;;9.53;1.90;;;;;;;16.90;71.96;100891.91;5053725;28;20212;-61
2022/11/01 09:57:05;;;;;;;5.73;1.60;;;;;;;17.16;72.95;100891.53;5050094;28;20254;-62
2022/11/01 09:59:38;;;;;;;2.37;0.80;;;;;;;17.43;69.54;100892.78;5053436;28;20208;-62
2022/11/01 10:02:29;;;;;;;4.63;0.80;;;;;;;17.84;67.14;100898.63;5052743;28;20211;-62
2022/11/01 10:05:13;;;;;;;7.10;1.07;;;;;;;18.35;65.46;100905.69;5056460;28;20212;-65
2022/11/01 10:07:54;;;;;;;6.60;1.00;;;;;;;19.20;62.76;100904.94;5052688;28;20214;-64
2022/11/01 10:10:37;;;;;;;5.13;1.03;;;;;;;19.99;59.47;100902.84;5054174;28;20266;-63
2022/11/01 10:13:29;;;;;;;3.30;1.13;;;;;;;20.64;56.21;100904.19;5052357;28;20215;-66
2022/11/01 10:16:04;;;;;;;4.40;1.00;;;;;;;21.17;55.08;100907.81;5050485;28;20212;-66
2022/11/01 10:18:35;;;;;;;2.97;1.03;;;;;;;21.91;52.21;100904.81;5050473;28;20804;-64
2022/11/01 10:21:09;;;;;;;2.77;1.00;;;;;;;21.73;51.17;100910.06;5048760;28;20208;-65
2022/11/01 10:23:45;;;;;;;3.47;1.20;;;;;;;21.33;52.33;100910.09;5049070;28;20200;-66
2022/11/01 10:26:17;;;;;;;2.87;0.90;;;;;;;20.90;51.70;100924.97;5052857;28;20289;-64
2022/11/01 10:28:52;;;;;;;2.83;1.00;;;;;;;20.44;51.90;100914.06;5059507;28;20215;-65
2022/11/01 10:31:24;;;;;;;5.47;1.23;;;;;;;20.02;53.05;100904.31;5049085;28;20207;-65
2022/11/01 10:33:58;;;;;;;3.03;0.90;;;;;;;19.86;54.18;100903.63;5052783;28;20209;-65
2022/11/01 10:36:32;;;;;;;4.90;0.70;;;;;;;20.18;53.88;100899.41;5051541;28;20574;-64
2022/11/01 10:39:14;;;;;;;4.90;0.90;;;;;;;20.99;51.37;100896.78;5051250;28;20253;-65
2022/11/01 10:42:08;;;;;;;3.05;0.70;;;;;;;21.90;48.35;100895.06;5052962;28;20223;-64
2022/11/01 10:44:40;;;;;;;4.10;0.80;;;;;;;21.84;48.52;100895.91;5055848;28;20253;-66
2022/11/01 10:47:14;;;;;;;8.73;1.13;;;;;;;22.03;47.17;100884.25;5059374;28;20211;-65
2022/11/01 10:49:47;;;;;;;4.88;0.88;;;;;;;22.40;45.14;100881.81;5057078;28;20387;-65
2022/11/01 10:52:46;;;;;;;4.60;0.70;;;;;;;22.52;45.14;100877.38;5052901;28;20199;-64
2022/11/01 10:55:19;;;;;;;3.05;0.80;;;;;;;22.64;44.85;100872.13;5057547;28;20260;-64
2022/11/01 10:57:51;;;;;;;6.70;0.93;;;;;;;23.86;41.43;100860.72;5049945;28;20451;-64
2022/11/01 11:00:20;;;;;;;4.75;1.20;;;;;;;24.48;40.42;100866.84;5057786;28;20222;-64
2022/11/01 11:02:53;;;;;;;2.03;0.60;;;;;;;25.34;39.70;100880.75;5053161;28;20661;-62
2022/11/01 11:05:22;;;;;;;5.13;1.13;;;;;;;26.64;37.23;100874.03;5053327;28;20654;-62
2022/11/01 11:07:51;;;;;;;3.72;0.60;;;;;;;26.87;36.57;100877.44;5060828;28;20231;-62
2022/11/01 11:10:21;;;;;;;2.90;0.95;;;;;;;26.83;37.09;100876.28;5058232;28;20613;-62
2022/11/01 11:12:56;;;;;;;3.78;1.00;;;;;;;26.67;37.26;100881.69;5055750;28;20200;-62
2022/11/01 11:15:37;;;;;;;2.40;0.77;;;;;;;27.13;35.34;100876.00;5051766;28;20215;-62
2022/11/01 11:18:16;;;;;;;3.67;1.00;;;;;;;27.59;35.52;100863.13;5050540;28;20211;-63
2022/11/01 11:20:44;;;;;;;5.35;1.20;;;;;;;27.93;35.03;100861.13;5050127;28;20212;-62
2022/11/01 11:23:12;;;;;;;3.95;0.90;;;;;;;28.72;34.13;100867.78;5053370;28;20255;-61
2022/11/01 11:25:41;;;;;;;3.75;0.98;;;;;;;29.04;33.89;100867.81;5049425;28;20259;-61
2022/11/01 11:28:25;;;;;;;3.40;0.93;;;;;;;28.93;32.97;100873.47;5063342;28;20291;-61
2022/11/01 11:30:53;;;;;;;6.30;0.80;;;;;;;29.00;33.15;100883.09;5056632;28;20642;-61
2022/11/01 11:33:22;;;;;;;7.25;1.02;;;;;;;28.62;34.03;100883.22;5054156;28;20563;-64